sensor_id;sensor_type;location;lat;lon;timestamp;pressure;altitude;pressure_sealevel;temperature;humidity
70781;BME280;59514;48.810;2.134;2022-07-21T00:00:01;100740.00;;;20.04;78.37
70781;BME280;59514;48.810;2.134;2022-07-21T00:02:30;100730.75;;;20.00;78.27
70781;BME280;59514;48.810;2.134;2022-07-21T00:04:55;100727.50;;;19.93;79.31
70781;BME280;59514;48.810;2.134;2022-07-21T00:07:21;100722.31;;;19.96;78.66
70781;BME280;59514;48.810;2.134;2022-07-21T00:09:46;100728.59;;;19.87;78.92
70781;BME280;59514;48.810;2.134;2022-07-21T00:12:11;100719.09;;;19.84;78.94
70781;BME280;59514;48.810;2.134;2022-07-21T00:14:37;100730.25;;;19.83;79.08
70781;BME280;59514;48.810;2.134;2022-07-21T00:17:02;100723.19;;;19.82;79.15
70781;BME280;59514;48.810;2.134;2022-07-21T00:19:28;100721.53;;;19.81;79.14
70781;BME280;59514;48.810;2.134;2022-07-21T00:21:53;100721.00;;;19.78;78.99
70781;BME280;59514;48.810;2.134;2022-07-21T00:24:18;100722.06;;;19.83;78.90
70781;BME280;59514;48.810;2.134;2022-07-21T00:26:44;100722.06;;;19.88;79.47
70781;BME280;59514;48.810;2.134;2022-07-21T00:29:10;100714.94;;;19.97;78.67
70781;BME280;59514;48.810;2.134;2022-07-21T00:31:35;100722.06;;;19.83;79.31
70781;BME280;59514;48.810;2.134;2022-07-21T00:34:01;100715.25;;;19.85;80.06
70781;BME280;59514;48.810;2.134;2022-07-21T00:36:26;100716.09;;;19.81;79.44
70781;BME280;59514;48.810;2.134;2022-07-21T00:38:52;100712.28;;;19.76;80.11
70781;BME280;59514;48.810;2.134;2022-07-21T00:41:17;100710.13;;;19.73;80.01
70781;BME280;59514;48.810;2.134;2022-07-21T00:43:42;100708.22;;;19.74;80.15
70781;BME280;59514;48.810;2.134;2022-07-21T00:46:08;100703.56;;;19.74;80.97
70781;BME280;59514;48.810;2.134;2022-07-21T00:48:33;100707.63;;;19.87;79.97
70781;BME280;59514;48.810;2.134;2022-07-21T00:50:59;100714.72;;;19.83;79.84
70781;BME280;59514;48.810;2.134;2022-07-21T00:53:24;100711.75;;;19.80;79.93
70781;BME280;59514;48.810;2.134;2022-07-21T00:55:49;100714.44;;;19.85;80.18
70781;BME280;59514;48.810;2.134;2022-07-21T00:58:15;100709.00;;;19.85;79.82
70781;BME280;59514;48.810;2.134;2022-07-21T01:00:41;100723.19;;;19.76;79.97
70781;BME280;59514;48.810;2.134;2022-07-21T01:03:06;100715.59;;;19.68;80.45
70781;BME280;59514;48.810;2.134;2022-07-21T01:05:32;100716.97;;;19.66;80.42
70781;BME280;59514;48.810;2.134;2022-07-21T01:07:57;100719.69;;;19.61;80.39
70781;BME280;59514;48.810;2.134;2022-07-21T01:10:28;100725.41;;;19.64;80.26
70781;BME280;59514;48.810;2.134;2022-07-21T01:12:53;100731.41;;;19.66;80.45
70781;BME280;59514;48.810;2.134;2022-07-21T01:15:19;100734.38;;;19.65;80.62
70781;BME280;59514;48.810;2.134;2022-07-21T01:17:46;100739.00;;;19.69;80.29
70781;BME280;59514;48.810;2.134;2022-07-21T01:20:14;100739.59;;;19.56;80.81
70781;BME280;59514;48.810;2.134;2022-07-21T01:22:42;100728.16;;;19.49;81.32
70781;BME280;59514;48.810;2.134;2022-07-21T01:25:08;100726.25;;;19.45;81.42
70781;BME280;59514;48.810;2.134;2022-07-21T01:27:34;100724.38;;;19.40;81.97
70781;BME280;59514;48.810;2.134;2022-07-21T01:30:00;100725.47;;;19.34;82.10
70781;BME280;59514;48.810;2.134;2022-07-21T01:32:26;100720.00;;;19.34;82.17
70781;BME280;59514;48.810;2.134;2022-07-21T01:34:52;100729.53;;;19.27;82.27
70781;BME280;59514;48.810;2.134;2022-07-21T01:37:22;100713.72;;;19.29;82.38
70781;BME280;59514;48.810;2.134;2022-07-21T01:39:51;100713.44;;;19.30;81.96
70781;BME280;59514;48.810;2.134;2022-07-21T01:42:36;100707.47;;;19.28;82.02
70781;BME280;59514;48.810;2.134;2022-07-21T01:45:03;100712.91;;;19.23;82.61
70781;BME280;59514;48.810;2.134;2022-07-21T01:47:28;100704.72;;;19.23;82.74
70781;BME280;59514;48.810;2.134;2022-07-21T01:49:54;100712.91;;;19.18;82.42
70781;BME280;59514;48.810;2.134;2022-07-21T01:52:19;100712.91;;;19.23;82.82
70781;BME280;59514;48.810;2.134;2022-07-21T01:54:44;100715.63;;;19.23;82.29
70781;BME280;59514;48.810;2.134;2022-07-21T01:57:10;100712.09;;;19.13;83.17
70781;BME280;59514;48.810;2.134;2022-07-21T01:59:35;100714.00;;;19.12;83.16
70781;BME280;59514;48.810;2.134;2022-07-21T02:02:01;100711.78;;;18.89;84.36
70781;BME280;59514;48.810;2.134;2022-07-21T02:04:26;100721.88;;;18.88;84.31
70781;BME280;59514;48.810;2.134;2022-07-21T02:06:51;100719.97;;;18.94;83.88
70781;BME280;59514;48.810;2.134;2022-07-21T02:09:17;100718.91;;;19.00;83.84
70781;BME280;59514;48.810;2.134;2022-07-21T02:11:42;100721.59;;;19.05;83.24
70781;BME280;59514;48.810;2.134;2022-07-21T02:14:07;100722.16;;;19.02;83.54
70781;BME280;59514;48.810;2.134;2022-07-21T02:16:33;100718.63;;;19.07;82.62
70781;BME280;59514;48.810;2.134;2022-07-21T02:18:59;100727.03;;;19.05;82.54
70781;BME280;59514;48.810;2.134;2022-07-21T02:21:24;100728.69;;;18.96;83.31
70781;BME280;59514;48.810;2.134;2022-07-21T02:23:50;100733.28;;;18.75;83.24
70781;BME280;59514;48.810;2.134;2022-07-21T02:26:15;100731.66;;;18.74;84.15
70781;BME280;59514;48.810;2.134;2022-07-21T02:28:40;100727.59;;;18.82;83.47
70781;BME280;59514;48.810;2.134;2022-07-21T02:31:06;100730.56;;;18.85;83.45
70781;BME280;59514;48.810;2.134;2022-07-21T02:33:32;100730.59;;;18.80;83.28
70781;BME280;59514;48.810;2.134;2022-07-21T02:35:57;100724.03;;;18.76;83.36
70781;BME280;59514;48.810;2.134;2022-07-21T02:38:23;100733.03;;;18.77;83.36
70781;BME280;59514;48.810;2.134;2022-07-21T02:40:48;100734.06;;;18.56;83.97
70781;BME280;59514;48.810;2.134;2022-07-21T02:43:14;100737.34;;;18.53;84.49
70781;BME280;59514;48.810;2.134;2022-07-21T02:45:39;100733.44;;;18.39;84.77
70781;BME280;59514;48.810;2.134;2022-07-21T02:48:08;100741.41;;;18.50;84.55
70781;BME280;59514;48.810;2.134;2022-07-21T02:50:36;100734.94;;;18.04;85.90
70781;BME280;59514;48.810;2.134;2022-07-21T02:53:08;100738.25;;;18.17;85.41
70781;BME280;59514;48.810;2.134;2022-07-21T02:55:34;100739.91;;;18.28;84.92
70781;BME280;59514;48.810;2.134;2022-07-21T02:58:11;100748.63;;;18.30;84.61
70781;BME280;59514;48.810;2.134;2022-07-21T03:00:45;100751.03;;;18.16;85.85
70781;BME280;59514;48.810;2.134;2022-07-21T03:03:13;100746.44;;;18.27;84.67
70781;BME280;59514;48.810;2.134;2022-07-21T03:05:39;100743.22;;;18.35;84.46
70781;BME280;59514;48.810;2.134;2022-07-21T03:08:05;100752.50;;;18.44;84.25
70781;BME280;59514;48.810;2.134;2022-07-21T03:10:31;100742.66;;;18.33;83.74
70781;BME280;59514;48.810;2.134;2022-07-21T03:12:56;100747.56;;;18.31;84.90
70781;BME280;59514;48.810;2.134;2022-07-21T03:15:21;100744.88;;;18.41;84.09
70781;BME280;59514;48.810;2.134;2022-07-21T03:17:47;100752.44;;;18.34;84.24
70781;BME280;59514;48.810;2.134;2022-07-21T03:20:12;100745.94;;;18.40;83.81
70781;BME280;59514;48.810;2.134;2022-07-21T03:22:38;100748.63;;;18.30;83.98
70781;BME280;59514;48.810;2.134;2022-07-21T03:25:04;100757.88;;;18.34;84.10
70781;BME280;59514;48.810;2.134;2022-07-21T03:27:29;100749.78;;;18.44;84.00
70781;BME280;59514;48.810;2.134;2022-07-21T03:29:55;100756.34;;;18.43;82.83
70781;BME280;59514;48.810;2.134;2022-07-21T03:32:20;100759.72;;;18.18;84.58
70781;BME280;59514;48.810;2.134;2022-07-21T03:34:45;100768.00;;;17.86;85.33
70781;BME280;59514;48.810;2.134;2022-07-21T03:37:11;100765.38;;;18.01;85.13
70781;BME280;59514;48.810;2.134;2022-07-21T03:39:37;100768.16;;;18.17;84.67
70781;BME280;59514;48.810;2.134;2022-07-21T03:42:02;100769.72;;;18.07;84.52
70781;BME280;59514;48.810;2.134;2022-07-21T03:44:28;100771.44;;;18.19;84.83
70781;BME280;59514;48.810;2.134;2022-07-21T03:46:53;100768.16;;;18.17;84.16
70781;BME280;59514;48.810;2.134;2022-07-21T03:49:18;100767.88;;;18.13;84.43
70781;BME280;59514;48.810;2.134;2022-07-21T03:51:44;100759.16;;;18.11;84.81
70781;BME280;59514;48.810;2.134;2022-07-21T03:54:09;100766.00;;;18.19;84.26
70781;BME280;59514;48.810;2.134;2022-07-21T03:56:34;100779.59;;;18.24;84.03
70781;BME280;59514;48.810;2.134;2022-07-21T03:59:00;100776.91;;;18.29;83.79
70781;BME280;59514;48.810;2.134;2022-07-21T04:01:25;100766.94;;;17.92;85.78
70781;BME280;59514;48.810;2.134;2022-07-21T04:03:50;100778.16;;;18.06;84.80
70781;BME280;59514;48.810;2.134;2022-07-21T04:06:16;100780.91;;;18.11;85.26
70781;BME280;59514;48.810;2.134;2022-07-21T04:08:41;100775.25;;;18.28;84.10
70781;BME280;59514;48.810;2.134;2022-07-21T04:11:06;100783.41;;;18.28;84.48
70781;BME280;59514;48.810;2.134;2022-07-21T04:13:32;100783.44;;;18.33;84.55
70781;BME280;59514;48.810;2.134;2022-07-21T04:15:57;100782.38;;;18.39;83.69
70781;BME280;59514;48.810;2.134;2022-07-21T04:18:24;100785.25;;;18.12;85.19
70781;BME280;59514;48.810;2.134;2022-07-21T04:20:49;100784.19;;;18.18;85.00
70781;BME280;59514;48.810;2.134;2022-07-21T04:23:14;100784.47;;;18.22;84.55
70781;BME280;59514;48.810;2.134;2022-07-21T04:25:40;100792.34;;;18.18;84.97
70781;BME280;59514;48.810;2.134;2022-07-21T04:28:05;100787.41;;;18.10;85.47
70781;BME280;59514;48.810;2.134;2022-07-21T04:30:32;100790.94;;;18.11;85.22
70781;BME280;59514;48.810;2.134;2022-07-21T04:32:58;100794.81;;;18.25;84.62
70781;BME280;59514;48.810;2.134;2022-07-21T04:35:23;100794.88;;;18.35;84.17
70781;BME280;59514;48.810;2.134;2022-07-21T04:37:49;100797.31;;;18.36;84.01
70781;BME280;59514;48.810;2.134;2022-07-21T04:40:15;100797.56;;;18.25;85.13
70781;BME280;59514;48.810;2.134;2022-07-21T04:42:42;100800.78;;;18.22;85.18
70781;BME280;59514;48.810;2.134;2022-07-21T04:45:10;100808.44;;;18.30;85.15
70781;BME280;59514;48.810;2.134;2022-07-21T04:47:48;100809.50;;;18.24;85.26
70781;BME280;59514;48.810;2.134;2022-07-21T04:50:16;100808.66;;;18.18;85.64
70781;BME280;59514;48.810;2.134;2022-07-21T04:52:41;100801.94;;;18.31;85.16
70781;BME280;59514;48.810;2.134;2022-07-21T04:55:07;100806.03;;;18.33;84.62
70781;BME280;59514;48.810;2.134;2022-07-21T04:57:41;100797.59;;;18.40;84.24
70781;BME280;59514;48.810;2.134;2022-07-21T05:00:10;100800.41;;;18.45;83.90
70781;BME280;59514;48.810;2.134;2022-07-21T05:02:36;100808.59;;;18.55;84.27
70781;BME280;59514;48.810;2.134;2022-07-21T05:05:02;100808.00;;;18.43;84.02
70781;BME280;59514;48.810;2.134;2022-07-21T05:07:28;100809.03;;;18.42;84.27
70781;BME280;59514;48.810;2.134;2022-07-21T05:09:53;100811.56;;;18.53;83.75
70781;BME280;59514;48.810;2.134;2022-07-21T05:12:18;100809.56;;;18.39;84.68
70781;BME280;59514;48.810;2.134;2022-07-21T05:14:44;100800.13;;;18.46;83.79
70781;BME280;59514;48.810;2.134;2022-07-21T05:17:09;100806.38;;;18.47;84.73
70781;BME280;59514;48.810;2.134;2022-07-21T05:19:34;100803.66;;;18.52;84.17
70781;BME280;59514;48.810;2.134;2022-07-21T05:22:00;100804.22;;;18.49;84.37
70781;BME280;59514;48.810;2.134;2022-07-21T05:24:25;100802.56;;;18.48;84.67
70781;BME280;59514;48.810;2.134;2022-07-21T05:26:50;100808.88;;;18.58;83.82
70781;BME280;59514;48.810;2.134;2022-07-21T05:29:16;100809.09;;;18.52;84.65
70781;BME280;59514;48.810;2.134;2022-07-21T05:31:41;100810.25;;;18.61;83.86
70781;BME280;59514;48.810;2.134;2022-07-21T05:34:06;100814.63;;;18.67;84.17
70781;BME280;59514;48.810;2.134;2022-07-21T05:36:32;100811.91;;;18.67;84.08
70781;BME280;59514;48.810;2.134;2022-07-21T05:38:57;100817.34;;;18.67;83.94
70781;BME280;59514;48.810;2.134;2022-07-21T05:41:22;100820.31;;;18.65;84.32
70781;BME280;59514;48.810;2.134;2022-07-21T05:43:48;100818.66;;;18.54;85.15
70781;BME280;59514;48.810;2.134;2022-07-21T05:46:14;100825.69;;;18.55;85.52
70781;BME280;59514;48.810;2.134;2022-07-21T05:48:39;100825.50;;;18.72;84.61
70781;BME280;59514;48.810;2.134;2022-07-21T05:51:05;100826.06;;;18.69;84.85
70781;BME280;59514;48.810;2.134;2022-07-21T05:53:30;100830.44;;;18.75;84.14
70781;BME280;59514;48.810;2.134;2022-07-21T05:55:56;100833.84;;;18.50;85.18
70781;BME280;59514;48.810;2.134;2022-07-21T05:58:21;100831.66;;;18.47;85.56
70781;BME280;59514;48.810;2.134;2022-07-21T06:00:52;100833.94;;;18.70;85.09
70781;BME280;59514;48.810;2.134;2022-07-21T06:03:43;100832.28;;;18.69;85.18
70781;BME280;59514;48.810;2.134;2022-07-21T06:06:10;100836.09;;;18.68;85.13
70781;BME280;59514;48.810;2.134;2022-07-21T06:08:40;100830.44;;;18.75;84.66
70781;BME280;59514;48.810;2.134;2022-07-21T06:11:10;100837.22;;;18.77;84.62
70781;BME280;59514;48.810;2.134;2022-07-21T06:13:37;100834.75;;;18.76;84.32
70781;BME280;59514;48.810;2.134;2022-07-21T06:16:03;100831.53;;;18.79;83.82
70781;BME280;59514;48.810;2.134;2022-07-21T06:18:28;100842.94;;;18.76;84.13
70781;BME280;59514;48.810;2.134;2022-07-21T06:20:54;100833.19;;;18.90;83.76
70781;BME280;59514;48.810;2.134;2022-07-21T06:23:19;100829.91;;;18.88;83.79
70781;BME280;59514;48.810;2.134;2022-07-21T06:25:45;100830.44;;;18.95;83.60
70781;BME280;59514;48.810;2.134;2022-07-21T06:28:10;100845.66;;;18.71;83.88
70781;BME280;59514;48.810;2.134;2022-07-21T06:30:36;100844.84;;;18.80;84.07
70781;BME280;59514;48.810;2.134;2022-07-21T06:33:01;100846.22;;;18.88;83.47
70781;BME280;59514;48.810;2.134;2022-07-21T06:35:27;100846.78;;;18.85;83.95
70781;BME280;59514;48.810;2.134;2022-07-21T06:37:52;100842.69;;;18.82;83.98
70781;BME280;59514;48.810;2.134;2022-07-21T06:40:17;100841.63;;;18.88;83.58
70781;BME280;59514;48.810;2.134;2022-07-21T06:42:43;100850.59;;;18.94;83.44
70781;BME280;59514;48.810;2.134;2022-07-21T06:45:08;100842.44;;;18.94;82.85
70781;BME280;59514;48.810;2.134;2022-07-21T06:47:33;100856.00;;;18.79;83.93
70781;BME280;59514;48.810;2.134;2022-07-21T06:49:59;100848.16;;;18.98;82.97
70781;BME280;59514;48.810;2.134;2022-07-21T06:52:32;100852.22;;;18.95;83.31
70781;BME280;59514;48.810;2.134;2022-07-21T06:54:57;100855.81;;;19.16;82.65
70781;BME280;59514;48.810;2.134;2022-07-21T06:57:23;100850.09;;;19.17;82.53
70781;BME280;59514;48.810;2.134;2022-07-21T06:59:49;100855.81;;;19.16;82.05
70781;BME280;59514;48.810;2.134;2022-07-21T07:02:14;100861.00;;;19.17;82.04
70781;BME280;59514;48.810;2.134;2022-07-21T07:04:40;100863.16;;;19.15;82.00
70781;BME280;59514;48.810;2.134;2022-07-21T07:07:05;100854.72;;;19.07;83.01
70781;BME280;59514;48.810;2.134;2022-07-21T07:09:31;100870.81;;;19.23;82.38
70781;BME280;59514;48.810;2.134;2022-07-21T07:11:56;100863.19;;;19.25;81.59
70781;BME280;59514;48.810;2.134;2022-07-21T07:14:34;100867.56;;;19.31;82.04
70781;BME280;59514;48.810;2.134;2022-07-21T07:17:01;100868.09;;;19.23;81.59
70781;BME280;59514;48.810;2.134;2022-07-21T07:19:27;100865.09;;;19.15;82.12
70781;BME280;59514;48.810;2.134;2022-07-21T07:21:53;100864.81;;;19.31;81.13
70781;BME280;59514;48.810;2.134;2022-07-21T07:24:19;100857.28;;;19.48;80.77
70781;BME280;59514;48.810;2.134;2022-07-21T07:26:44;100873.47;;;18.98;82.54
70781;BME280;59514;48.810;2.134;2022-07-21T07:29:10;100874.56;;;19.07;82.11
70781;BME280;59514;48.810;2.134;2022-07-21T07:31:35;100880.59;;;19.19;82.09
70781;BME280;59514;48.810;2.134;2022-07-21T07:34:01;100881.13;;;19.11;82.29
70781;BME280;59514;48.810;2.134;2022-07-21T07:36:27;100881.69;;;19.18;81.72
70781;BME280;59514;48.810;2.134;2022-07-21T07:38:54;100882.28;;;19.30;81.45
70781;BME280;59514;48.810;2.134;2022-07-21T07:41:20;100882.78;;;19.27;81.05
70781;BME280;59514;48.810;2.134;2022-07-21T07:43:46;100883.59;;;19.18;82.11
70781;BME280;59514;48.810;2.134;2022-07-21T07:46:12;100888.25;;;19.27;81.38
70781;BME280;59514;48.810;2.134;2022-07-21T07:48:38;100885.50;;;19.17;81.88
70781;BME280;59514;48.810;2.134;2022-07-21T07:51:05;100881.41;;;19.20;81.77
70781;BME280;59514;48.810;2.134;2022-07-21T07:53:31;100890.22;;;19.52;80.70
70781;BME280;59514;48.810;2.134;2022-07-21T07:55:57;100888.56;;;19.51;80.14
70781;BME280;59514;48.810;2.134;2022-07-21T07:58:22;100886.13;;;19.49;80.27
70781;BME280;59514;48.810;2.134;2022-07-21T08:00:48;100897.03;;;19.44;80.44
70781;BME280;59514;48.810;2.134;2022-07-21T08:03:13;100894.84;;;19.41;80.43
70781;BME280;59514;48.810;2.134;2022-07-21T08:05:39;100893.25;;;19.60;80.58
70781;BME280;59514;48.810;2.134;2022-07-21T08:08:04;100902.22;;;19.56;80.17
70781;BME280;59514;48.810;2.134;2022-07-21T08:10:30;100905.75;;;19.51;80.26
70781;BME280;59514;48.810;2.134;2022-07-21T08:12:56;100906.03;;;19.50;80.68
70781;BME280;59514;48.810;2.134;2022-07-21T08:15:21;100901.66;;;19.59;80.08
70781;BME280;59514;48.810;2.134;2022-07-21T08:17:47;100898.41;;;19.67;79.47
70781;BME280;59514;48.810;2.134;2022-07-21T08:20:12;100900.03;;;19.68;80.23
70781;BME280;59514;48.810;2.134;2022-07-21T08:22:37;100899.75;;;19.95;79.56
70781;BME280;59514;48.810;2.134;2022-07-21T08:25:03;100903.03;;;20.02;78.33
70781;BME280;59514;48.810;2.134;2022-07-21T08:27:29;100905.75;;;19.71;79.34
70781;BME280;59514;48.810;2.134;2022-07-21T08:29:54;100910.13;;;19.88;79.10
70781;BME280;59514;48.810;2.134;2022-07-21T08:32:20;100910.09;;;20.03;78.91
70781;BME280;59514;48.810;2.134;2022-07-21T08:34:46;100914.19;;;20.15;78.24
70781;BME280;59514;48.810;2.134;2022-07-21T08:37:11;100915.84;;;20.11;77.95
70781;BME280;59514;48.810;2.134;2022-07-21T08:39:36;100909.88;;;19.94;78.22
70781;BME280;59514;48.810;2.134;2022-07-21T08:42:02;100918.84;;;19.69;79.28
70781;BME280;59514;48.810;2.134;2022-07-21T08:44:28;100915.59;;;19.72;79.40
70781;BME280;59514;48.810;2.134;2022-07-21T08:46:53;100920.22;;;19.82;79.61
70781;BME280;59514;48.810;2.134;2022-07-21T08:49:21;100917.75;;;19.81;79.07
70781;BME280;59514;48.810;2.134;2022-07-21T08:51:48;100920.75;;;20.04;78.30
70781;BME280;59514;48.810;2.134;2022-07-21T08:54:13;100911.47;;;20.15;77.77
70781;BME280;59514;48.810;2.134;2022-07-21T08:56:39;100917.22;;;19.94;77.61
70781;BME280;59514;48.810;2.134;2022-07-21T08:59:04;100916.94;;;20.05;77.65
70781;BME280;59514;48.810;2.134;2022-07-21T09:01:31;100915.00;;;20.11;77.62
70781;BME280;59514;48.810;2.134;2022-07-21T09:04:20;100919.13;;;19.88;78.17
70781;BME280;59514;48.810;2.134;2022-07-21T09:06:55;100919.13;;;19.88;77.91
70781;BME280;59514;48.810;2.134;2022-07-21T09:09:22;100918.84;;;20.05;77.77
70781;BME280;59514;48.810;2.134;2022-07-21T09:11:48;100922.38;;;20.05;77.67
70781;BME280;59514;48.810;2.134;2022-07-21T09:14:16;100931.66;;;19.99;78.01
70781;BME280;59514;48.810;2.134;2022-07-21T09:16:51;100923.22;;;20.06;77.47
70781;BME280;59514;48.810;2.134;2022-07-21T09:21:44;100928.66;;;20.36;75.91
70781;BME280;59514;48.810;2.134;2022-07-21T09:24:14;100919.34;;;20.52;75.75
70781;BME280;59514;48.810;2.134;2022-07-21T09:32:21;100918.28;;;20.38;76.15
70781;BME280;59514;48.810;2.134;2022-07-21T09:34:50;100928.91;;;20.49;75.49
70781;BME280;59514;48.810;2.134;2022-07-21T09:37:17;100924.25;;;20.55;75.49
70781;BME280;59514;48.810;2.134;2022-07-21T09:39:55;100923.91;;;20.77;74.48
70781;BME280;59514;48.810;2.134;2022-07-21T09:42:30;100914.28;;;20.94;73.58
70781;BME280;59514;48.810;2.134;2022-07-21T09:45:11;100932.13;;;20.72;73.12
70781;BME280;59514;48.810;2.134;2022-07-21T09:47:38;100923.63;;;20.78;73.10
70781;BME280;59514;48.810;2.134;2022-07-21T09:50:05;100925.25;;;20.79;73.38
70781;BME280;59514;48.810;2.134;2022-07-21T09:52:32;100924.66;;;20.97;72.98
70781;BME280;59514;48.810;2.134;2022-07-21T09:55:00;100916.97;;;21.04;72.50
70781;BME280;59514;48.810;2.134;2022-07-21T09:57:27;100917.31;;;20.88;73.15
70781;BME280;59514;48.810;2.134;2022-07-21T09:59:53;100923.94;;;20.72;73.43
70781;BME280;59514;48.810;2.134;2022-07-21T10:02:23;100923.06;;;20.76;72.41
70781;BME280;59514;48.810;2.134;2022-07-21T10:05:10;100916.28;;;20.74;73.39
70781;BME280;59514;48.810;2.134;2022-07-21T10:07:38;100913.72;;;20.97;72.35
70781;BME280;59514;48.810;2.134;2022-07-21T10:10:05;100910.38;;;21.15;71.49
70781;BME280;59514;48.810;2.134;2022-07-21T10:12:31;100908.84;;;20.89;72.38
70781;BME280;59514;48.810;2.134;2022-07-21T10:14:56;100904.47;;;20.88;72.85
70781;BME280;59514;48.810;2.134;2022-07-21T10:17:24;100915.38;;;20.88;72.70
70781;BME280;59514;48.810;2.134;2022-07-21T10:20:13;100916.44;;;21.07;72.64
70781;BME280;59514;48.810;2.134;2022-07-21T10:25:25;100914.16;;;21.24;71.42
70781;BME280;59514;48.810;2.134;2022-07-21T10:28:18;100916.34;;;21.27;71.31
70781;BME280;59514;48.810;2.134;2022-07-21T10:30:54;100916.09;;;21.19;71.46
70781;BME280;59514;48.810;2.134;2022-07-21T10:34:06;100913.84;;;21.70;70.21
70781;BME280;59514;48.810;2.134;2022-07-21T10:36:07;100915.50;;;22.62;66.99
70781;BME280;59514;48.810;2.134;2022-07-21T10:38:34;100924.88;;;22.27;67.07
70781;BME280;59514;48.810;2.134;2022-07-21T10:41:02;100913.38;;;22.77;64.78
70781;BME280;59514;48.810;2.134;2022-07-21T10:45:55;100908.31;;;24.01;60.85
70781;BME280;59514;48.810;2.134;2022-07-21T10:51:11;100914.44;;;24.71;57.70
70781;BME280;59514;48.810;2.134;2022-07-21T10:53:37;100913.34;;;24.99;56.97
70781;BME280;59514;48.810;2.134;2022-07-21T10:56:03;100902.63;;;23.79;60.29
70781;BME280;59514;48.810;2.134;2022-07-21T10:58:33;100899.38;;;24.68;58.06
70781;BME280;59514;48.810;2.134;2022-07-21T11:01:06;100910.22;;;25.28;56.41
70781;BME280;59514;48.810;2.134;2022-07-21T11:03:44;100899.63;;;25.35;55.38
70781;BME280;59514;48.810;2.134;2022-07-21T11:06:23;100906.22;;;24.85;57.03
70781;BME280;59514;48.810;2.134;2022-07-21T11:08:53;100906.56;;;24.24;58.49
70781;BME280;59514;48.810;2.134;2022-07-21T11:11:32;100895.75;;;24.73;58.24
70781;BME280;59514;48.810;2.134;2022-07-21T11:24:47;100905.13;;;23.62;61.35
70781;BME280;59514;48.810;2.134;2022-07-21T11:27:15;100900.34;;;23.86;60.96
70781;BME280;59514;48.810;2.134;2022-07-21T11:29:43;100903.78;;;23.78;60.83
70781;BME280;59514;48.810;2.134;2022-07-21T11:32:10;100909.97;;;25.02;56.69
70781;BME280;59514;48.810;2.134;2022-07-21T11:34:48;100900.88;;;25.02;56.66
70781;BME280;59514;48.810;2.134;2022-07-21T11:37:16;100896.44;;;25.41;54.88
70781;BME280;59514;48.810;2.134;2022-07-21T11:39:42;100890.72;;;26.18;53.63
70781;BME280;59514;48.810;2.134;2022-07-21T11:42:10;100896.56;;;25.36;55.52
70781;BME280;59514;48.810;2.134;2022-07-21T11:44:37;100893.69;;;25.55;54.05
70781;BME280;59514;48.810;2.134;2022-07-21T11:47:04;100884.78;;;25.80;53.05
70781;BME280;59514;48.810;2.134;2022-07-21T11:49:30;100883.03;;;25.62;53.87
70781;BME280;59514;48.810;2.134;2022-07-21T11:54:27;100879.38;;;25.31;54.14
70781;BME280;59514;48.810;2.134;2022-07-21T11:56:53;100885.97;;;25.66;53.44
70781;BME280;59514;48.810;2.134;2022-07-21T11:59:19;100882.69;;;25.41;55.04
70781;BME280;59514;48.810;2.134;2022-07-21T12:04:46;100883.38;;;25.11;53.56
70781;BME280;59514;48.810;2.134;2022-07-21T12:07:14;100886.97;;;25.34;53.96
70781;BME280;59514;48.810;2.134;2022-07-21T12:09:41;100883.00;;;24.91;54.18
70781;BME280;59514;48.810;2.134;2022-07-21T12:12:07;100871.22;;;24.49;55.22
70781;BME280;59514;48.810;2.134;2022-07-21T12:14:43;100877.09;;;24.29;55.87
70781;BME280;59514;48.810;2.134;2022-07-21T12:17:09;100876.56;;;25.09;53.45
70781;BME280;59514;48.810;2.134;2022-07-21T12:19:34;100875.59;;;25.27;53.07
70781;BME280;59514;48.810;2.134;2022-07-21T12:22:00;100881.03;;;25.98;51.14
70781;BME280;59514;48.810;2.134;2022-07-21T12:24:49;100874.72;;;25.76;51.03
70781;BME280;59514;48.810;2.134;2022-07-21T12:27:16;100871.50;;;26.26;48.96
70781;BME280;59514;48.810;2.134;2022-07-21T12:29:42;100877.59;;;27.02;48.03
70781;BME280;59514;48.810;2.134;2022-07-21T12:32:07;100870.91;;;26.38;49.66
70781;BME280;59514;48.810;2.134;2022-07-21T12:34:47;100868.22;;;26.64;48.75
70781;BME280;59514;48.810;2.134;2022-07-21T12:37:13;100869.63;;;26.92;48.79
70781;BME280;59514;48.810;2.134;2022-07-21T12:39:38;100877.13;;;27.25;48.00
70781;BME280;59514;48.810;2.134;2022-07-21T12:42:32;100868.03;;;27.76;46.42
70781;BME280;59514;48.810;2.134;2022-07-21T12:45:00;100859.22;;;28.17;45.60
70781;BME280;59514;48.810;2.134;2022-07-21T12:47:37;100860.44;;;27.73;44.80
70781;BME280;59514;48.810;2.134;2022-07-21T12:50:05;100865.09;;;26.09;47.71
70781;BME280;59514;48.810;2.134;2022-07-21T12:52:31;100864.38;;;25.37;50.72
70781;BME280;59514;48.810;2.134;2022-07-21T12:54:58;100867.59;;;25.52;50.00
70781;BME280;59514;48.810;2.134;2022-07-21T12:57:26;100872.84;;;25.63;50.77
70781;BME280;59514;48.810;2.134;2022-07-21T12:59:52;100866.34;;;26.33;49.57
70781;BME280;59514;48.810;2.134;2022-07-21T13:02:17;100859.63;;;27.30;45.99
70781;BME280;59514;48.810;2.134;2022-07-21T13:04:42;100863.72;;;26.28;48.71
70781;BME280;59514;48.810;2.134;2022-07-21T13:07:08;100858.25;;;26.76;47.61
70781;BME280;59514;48.810;2.134;2022-07-21T13:09:33;100862.13;;;25.83;49.18
70781;BME280;59514;48.810;2.134;2022-07-21T13:11:58;100870.03;;;25.54;50.18
70781;BME280;59514;48.810;2.134;2022-07-21T13:14:24;100859.28;;;24.95;52.25
70781;BME280;59514;48.810;2.134;2022-07-21T13:16:49;100857.69;;;25.29;51.06
70781;BME280;59514;48.810;2.134;2022-07-21T13:19:14;100857.34;;;25.44;50.58
70781;BME280;59514;48.810;2.134;2022-07-21T13:21:40;100853.66;;;26.24;48.29